Trona, CA (93592)

10:58 AM PDT on September 03, 2015 (GMT -0700)
Studio Forge | | Change Station
CLOSE
Current Station
Personal Weather Station
Location: Ridgecrest, CA
Elevation: 2287 ft
Nearby Weather Stations

Elev 2287 ft 35.62 °N, 117.67 °W | Updated 34 seconds ago

Clear
Clear
86.2 °F
Feels Like 83 °F
N
9.0
Wind Variable Wind from SW
Gusts 11.0 mph

Today
High -- | Low -- °F
--% Chance of Precip.
Yesterday
High -- | Low -- °F
Precip. -- in
6:22 AM 7:14 PM
Waning Gibbous, 68% visible
Pressure 29.80 in
Visibility 10.0 miles
Clouds Scattered Clouds 28000 ft
Heat Index 83 °F
Dew Point 23 °F
Humidity 10%
Rainfall 0.00 in
Snow Depth Not available.
UV 6 out of 12
Pollen 8.80 out of 12
Air Quality Not available.
Flu Activity Not available.
METAR KNID 031756Z 17015G22KT 10SM SCT280 31/M04 A2987 RMK AO2 SLP091 T03061039 10306 20183 58005 $
Pressure 29.80 in
Visibility 10.0 miles
Clouds Scattered Clouds 28000 ft
Heat Index 83 °F
Dew Point 23 °F
Humidity 10%
Rainfall 0.00 in
Snow Depth Not available.
UV 6 out of 12
Pollen 8.80 out of 12
Air Quality Not available.
Flu Activity Not available.
METAR KNID 031756Z 17015G22KT 10SM SCT280 31/M04 A2987 RMK AO2 SLP091 T03061039 10306 20183 58005 $

10-Day Weather Forecast

×

Almanac

Astronomy

Sep. 03, 2015 Rise Set
Actual Time
Civil Twilight
Nautical Twilight
Astronomical Twilight
Moon
Length of Visible Light
Length of Day
Tomorrow will be .
, % of the Moon is Illuminated

Today's Extremes

State Highs State Lows

Community

WunderPhotos

Upload Photos

1,851,993 photos uploaded!

WunderBlogs® & News

Nearby

Air Quality

  Air Quality AQ Index Pollutant
Not available.

Snow Depth

Station Depth Elevation

Earthquake Activity

City Distance Mag. Time & Date
Minimum magnitude displayed is 2.5.

Coastal Water Temperatures

Place Temperature

Stations

Nearby Weather Stations

Station Location Temp. Windchill Dew Point Humidity Wind Precip. Elev Updated Type